CheckWX is a tool to help pilots better visualize weather data.  It is not intended as a substitute for an official pre-flight weather briefing.

14:17:06 UTC

DFFD METAR
Ouagadougou Airport
Ouagadougou, Burkina Faso
Current

1 hour ago

DFFD 221300Z 29008KT 190V360 9999 FEW026 40/18 Q1008 NOSIG
Observed
Apr-22 @ 13:00 UTC
Wind
  • 290° at 8 KTS
Visibility
10,000+ meters
Flight Rules
VFR
Cloud Levels
  • Few at 2,600' AGL
Temperature
40°C / 104°F
Dewpoint
18°C / 64°F
Humidity
28%
Altimeter
29.76" Hg
Pressure
1007.92 hPa
Previous

2 hours ago

DFFD 221200Z 25007KT 200V300 9999 FEW026 38/18 Q1009 NOSIG
Observed
Apr-22 @ 12:00 UTC
Wind
  • 250° at 7 KTS
Visibility
10,000+ meters
Flight Rules
VFR
Cloud Levels
  • Few at 2,600' AGL
Temperature
38°C / 100°F
Dewpoint
18°C / 64°F
Humidity
31%
Altimeter
29.79" Hg
Pressure
1008.92 hPa
Previous

3 hours ago

DFFD 221100Z 24009KT 200V270 CAVOK 36/19 Q1010 NOSIG
Observed
Apr-22 @ 11:00 UTC
Wind
  • 240° at 9 KTS
Visibility
10,000+ meters
Flight Rules
VFR
Cloud Levels
  • Clear skies
Temperature
36°C / 97°F
Dewpoint
19°C / 66°F
Humidity
37%
Altimeter
29.82" Hg
Pressure
1009.92 hPa